Aviation Digital Data Service (ADDS)

Output produced by METARs form (1047 UTC 18 April 2014)
found at http://aviationweather.gov/adds/metars/
 
KGSO 180909Z 1809/1906 07008KT P6SM BKN250 
     TEMPO 1809/1813 SCT010 BKN250